createdAt,value
2022-12-23T00:01:34.165Z,15.55
2022-12-23T00:04:01.373Z,24.02
2022-12-23T00:06:28.439Z,16.00
2022-12-23T00:08:59.196Z,13.93
2022-12-23T00:11:29.014Z,15.77
2022-12-23T00:17:52.630Z,15.80
2022-12-23T00:24:41.532Z,22.63
2022-12-23T00:27:08.470Z,22.08
2022-12-23T00:29:35.345Z,21.33
2022-12-23T00:36:19.132Z,30.73
2022-12-23T00:49:43.429Z,19.90
2022-12-23T00:56:02.982Z,30.90
2022-12-23T01:05:36.837Z,28.67
2022-12-23T01:11:50.699Z,22.50
2022-12-23T01:18:40.304Z,25.15
2022-12-23T01:25:53.372Z,30.15
2022-12-23T01:32:55.500Z,29.50
2022-12-23T01:39:03.909Z,28.13
2022-12-23T01:45:19.320Z,25.95
2022-12-23T01:51:30.344Z,26.17
2022-12-23T01:54:01.659Z,25.73
2022-12-23T01:56:37.638Z,25.92
2022-12-23T02:14:27.612Z,21.77
2022-12-23T02:21:02.515Z,19.48
2022-12-23T02:27:32.285Z,19.98
2022-12-23T02:30:20.616Z,20.30
2022-12-23T02:33:11.690Z,18.75
2022-12-23T02:36:07.128Z,19.73
2022-12-23T02:38:48.401Z,20.08
2022-12-23T02:41:30.970Z,19.92
2022-12-23T02:44:02.868Z,18.88
2022-12-23T02:46:56.880Z,19.25
2022-12-23T02:53:40.495Z,17.20
2022-12-23T02:56:10.377Z,17.90
2022-12-23T02:59:35.365Z,18.38
2022-12-23T03:25:46.305Z,16.58
2022-12-23T03:40:05.218Z,13.27
2022-12-23T03:46:21.603Z,15.50
2022-12-23T04:00:50.664Z,16.27
2022-12-23T04:13:30.979Z,15.95
2022-12-23T04:15:59.266Z,16.25
2022-12-23T04:18:26.305Z,16.85
2022-12-23T04:21:01.943Z,19.00
2022-12-23T04:27:55.460Z,15.52
2022-12-23T04:34:49.591Z,15.68
2022-12-23T04:40:57.106Z,16.58
2022-12-23T04:48:36.303Z,14.77
2022-12-23T04:51:03.786Z,17.35
2022-12-23T04:53:30.769Z,14.88
2022-12-23T05:04:15.297Z,17.33
2022-12-23T05:06:48.120Z,18.70
2022-12-23T05:13:27.957Z,18.08
2022-12-23T05:35:48.862Z,25.60
2022-12-23T05:39:04.968Z,28.10
2022-12-23T05:53:07.017Z,22.35
2022-12-23T05:59:31.254Z,24.25
2022-12-23T06:05:57.159Z,24.27
2022-12-23T06:31:39.237Z,22.55
2022-12-23T06:34:06.827Z,23.73
2022-12-23T06:36:33.656Z,24.27
2022-12-23T06:39:01.564Z,23.23
2022-12-23T06:41:31.973Z,22.23
2022-12-23T06:43:58.859Z,22.15
2022-12-23T06:46:25.827Z,22.35
2022-12-23T06:48:53.096Z,22.33
2022-12-23T06:51:20.341Z,22.17
2022-12-23T06:53:48.215Z,23.70
2022-12-23T06:56:15.459Z,22.83
2022-12-23T06:58:42.353Z,24.63
2022-12-23T07:01:10.461Z,23.63
2022-12-23T07:03:37.637Z,22.45
2022-12-23T07:06:04.890Z,24.38
2022-12-23T07:08:31.844Z,23.80
2022-12-23T07:11:00.179Z,22.92
2022-12-23T07:13:27.853Z,23.63
2022-12-23T07:15:58.427Z,22.52
2022-12-23T07:18:27.748Z,22.75
2022-12-23T07:20:59.272Z,32.35
2022-12-23T07:23:26.234Z,25.52
2022-12-23T07:25:53.174Z,25.88
2022-12-23T07:28:20.394Z,25.05
2022-12-23T07:30:47.877Z,26.15
2022-12-23T07:33:14.859Z,28.00
2022-12-23T07:35:44.225Z,26.35
2022-12-23T07:38:11.298Z,25.42
2022-12-23T07:40:44.205Z,26.52
2022-12-23T07:43:22.897Z,26.52
2022-12-23T07:45:55.636Z,25.67
2022-12-23T07:48:26.286Z,24.73
2022-12-23T07:50:54.560Z,24.30
2022-12-23T07:53:21.494Z,26.27
2022-12-23T07:55:54.585Z,27.48
2022-12-23T07:58:23.291Z,27.83
2022-12-23T08:00:50.326Z,26.95
2022-12-23T08:03:17.740Z,27.45
2022-12-23T08:05:44.843Z,26.90
2022-12-23T08:08:12.182Z,26.83
2022-12-23T08:10:44.483Z,26.40
2022-12-23T08:13:15.071Z,25.58
2022-12-23T08:15:41.861Z,24.80
2022-12-23T08:18:09.019Z,27.98
2022-12-23T08:20:35.956Z,33.58
2022-12-23T08:23:02.861Z,33.42
2022-12-23T08:25:29.727Z,33.45
2022-12-23T08:27:56.912Z,36.58
2022-12-23T08:30:23.868Z,39.03
2022-12-23T08:32:50.747Z,45.55
2022-12-23T08:35:17.871Z,40.65
2022-12-23T08:37:44.763Z,39.45
2022-12-23T08:40:12.315Z,36.42
2022-12-23T08:42:39.139Z,37.88
2022-12-23T08:45:06.490Z,38.55
2022-12-23T08:47:33.319Z,35.25
2022-12-23T08:50:00.302Z,35.45
2022-12-23T08:56:19.720Z,30.80
2022-12-23T08:58:49.196Z,37.15
2022-12-23T09:01:17.825Z,35.45
2022-12-23T09:03:45.351Z,34.25
2022-12-23T09:06:13.693Z,32.65
2022-12-23T09:08:41.525Z,30.75
2022-12-23T09:11:13.037Z,29.60
2022-12-23T09:13:40.900Z,32.25
2022-12-23T09:16:08.847Z,38.13
2022-12-23T09:18:36.755Z,34.83
2022-12-23T09:21:09.019Z,32.10
2022-12-23T09:23:36.225Z,29.98
2022-12-23T09:26:05.160Z,31.42
2022-12-23T09:28:32.141Z,30.40
2022-12-23T09:31:06.103Z,32.05
2022-12-23T09:33:33.084Z,30.38
2022-12-23T09:36:00.843Z,53.10
2022-12-23T09:38:27.822Z,48.15
2022-12-23T09:41:11.409Z,32.92
2022-12-23T09:44:00.563Z,29.60
2022-12-23T09:46:32.294Z,26.90
2022-12-23T09:51:36.186Z,24.88
2022-12-23T09:54:31.687Z,27.23
2022-12-23T09:57:24.128Z,28.38
2022-12-23T10:00:08.378Z,26.33
2022-12-23T10:02:57.166Z,28.05
2022-12-23T10:05:42.245Z,26.17
2022-12-23T10:08:38.439Z,25.88
2022-12-23T10:11:19.293Z,24.60
2022-12-23T10:13:58.775Z,28.17
2022-12-23T10:16:33.801Z,32.13
2022-12-23T10:19:07.008Z,32.60
2022-12-23T10:21:43.737Z,30.48
2022-12-23T10:24:20.157Z,31.38
2022-12-23T10:26:56.321Z,29.80
2022-12-23T10:29:31.335Z,30.00
2022-12-23T10:32:01.484Z,29.75
2022-12-23T10:34:42.872Z,28.77
2022-12-23T10:37:37.297Z,26.02
2022-12-23T10:40:09.996Z,24.17
2022-12-23T10:42:52.998Z,23.92
2022-12-23T10:45:46.064Z,23.90
2022-12-23T10:48:31.301Z,23.05
2022-12-23T10:51:11.695Z,23.40
2022-12-23T10:53:55.388Z,23.05
2022-12-23T10:56:25.646Z,23.42
2022-12-23T10:58:56.824Z,23.70
2022-12-23T11:01:27.416Z,22.80
2022-12-23T11:04:09.268Z,19.67
2022-12-23T11:07:10.650Z,20.05
2022-12-23T11:09:56.770Z,20.63
2022-12-23T11:12:43.552Z,19.48
2022-12-23T11:15:47.204Z,20.17
2022-12-23T11:18:14.108Z,20.15
2022-12-23T11:20:43.615Z,18.17
2022-12-23T11:23:33.266Z,24.02
2022-12-23T11:26:10.352Z,17.23
2022-12-23T11:28:42.822Z,18.55
2022-12-23T11:31:17.041Z,15.65
2022-12-23T11:33:55.639Z,16.13
2022-12-23T11:36:27.462Z,14.05
2022-12-23T11:42:07.403Z,15.38
2022-12-23T11:44:48.146Z,18.50
2022-12-23T11:47:22.995Z,16.98
2022-12-23T11:49:55.754Z,18.95
2022-12-23T11:52:34.233Z,14.82
2022-12-23T11:55:06.053Z,14.18
2022-12-23T12:00:25.183Z,13.65
2022-12-23T12:02:58.985Z,13.68
2022-12-23T12:05:33.310Z,13.70
2022-12-23T12:08:04.459Z,14.07
2022-12-23T12:10:35.361Z,13.30
2022-12-23T12:13:06.143Z,13.90
2022-12-23T12:15:47.839Z,12.50
2022-12-23T12:20:51.219Z,13.48
2022-12-23T12:23:46.539Z,12.02
2022-12-23T12:26:35.690Z,14.45
2022-12-23T12:29:36.368Z,12.57
2022-12-23T12:32:07.673Z,13.90
2022-12-23T12:34:34.689Z,11.90
2022-12-23T12:37:22.764Z,13.00
2022-12-23T12:39:54.483Z,12.68
2022-12-23T12:42:32.498Z,11.65
2022-12-23T12:45:12.419Z,12.05
2022-12-23T12:48:24.175Z,10.82
2022-12-23T12:51:10.059Z,10.10
2022-12-23T12:53:39.097Z,10.52
2022-12-23T12:56:22.780Z,10.75
2022-12-23T12:58:49.664Z,10.30
2022-12-23T13:01:42.979Z,11.07
2022-12-23T13:04:28.741Z,11.10
2022-12-23T13:07:13.818Z,10.80
2022-12-23T13:09:55.984Z,10.40
2022-12-23T13:12:38.915Z,10.80
2022-12-23T13:15:22.988Z,10.55
2022-12-23T13:17:49.803Z,10.35
2022-12-23T13:20:39.139Z,11.20
2022-12-23T13:23:41.523Z,9.85
2022-12-23T13:26:15.233Z,10.18
2022-12-23T13:28:59.446Z,10.93
2022-12-23T13:31:33.831Z,9.48
2022-12-23T13:34:36.481Z,9.60
2022-12-23T13:37:29.144Z,11.10
2022-12-23T13:40:14.979Z,9.05
2022-12-23T13:42:55.551Z,10.00
2022-12-23T13:45:28.388Z,9.55
2022-12-23T13:48:05.404Z,10.38
2022-12-23T13:50:42.262Z,8.80
2022-12-23T13:53:21.213Z,10.10
2022-12-23T13:55:54.795Z,9.13
2022-12-23T13:58:24.682Z,9.95
2022-12-23T14:01:10.196Z,8.60
2022-12-23T14:03:39.166Z,8.73
2022-12-23T14:06:56.205Z,9.18
2022-12-23T14:09:31.336Z,8.75
2022-12-23T14:12:08.187Z,7.15
2022-12-23T14:14:35.388Z,7.72
2022-12-23T14:17:12.931Z,7.47
2022-12-23T14:19:51.758Z,7.70
2022-12-23T14:22:27.037Z,8.57
2022-12-23T14:25:26.963Z,29.88
2022-12-23T14:28:14.976Z,10.10
2022-12-23T14:30:46.758Z,16.17
2022-12-23T14:36:25.639Z,9.80
2022-12-23T14:39:29.013Z,9.07
2022-12-23T14:42:01.652Z,8.70
2022-12-23T14:44:38.151Z,9.32
2022-12-23T14:47:25.102Z,9.75
2022-12-23T14:49:52.302Z,8.60
2022-12-23T14:52:44.653Z,8.88
2022-12-23T14:55:32.654Z,11.63
2022-12-23T14:58:20.354Z,12.45
2022-12-23T15:00:56.458Z,11.05
2022-12-23T15:03:23.710Z,11.52
2022-12-23T15:05:51.329Z,20.73
2022-12-23T15:08:33.115Z,21.35
2022-12-23T15:11:00.371Z,24.27
2022-12-23T15:13:29.340Z,31.00
2022-12-23T15:16:01.300Z,28.40
2022-12-23T15:18:29.099Z,19.55
2022-12-23T15:21:09.525Z,20.45
2022-12-23T15:23:36.451Z,19.45
2022-12-23T15:26:03.670Z,16.98
2022-12-23T15:28:39.551Z,18.58
2022-12-23T15:31:15.276Z,48.63
2022-12-23T15:34:04.080Z,40.17
2022-12-23T15:36:36.892Z,42.92
2022-12-23T15:41:45.711Z,25.33
2022-12-23T15:44:24.550Z,18.52
2022-12-23T15:46:52.445Z,14.02
2022-12-23T15:49:22.451Z,13.10
2022-12-23T15:52:16.554Z,12.15
2022-12-23T15:54:52.198Z,12.45
2022-12-23T15:57:21.479Z,15.20
2022-12-23T15:59:48.955Z,13.38
2022-12-23T16:02:59.599Z,14.65
2022-12-23T16:05:31.493Z,13.50
2022-12-23T16:08:29.742Z,18.98
2022-12-23T16:11:12.104Z,16.90
2022-12-23T16:13:44.927Z,16.92
2022-12-23T16:16:39.842Z,30.58
2022-12-23T16:21:53.724Z,21.65
2022-12-23T16:24:20.968Z,20.85
2022-12-23T16:26:47.953Z,20.55
2022-12-23T16:29:15.301Z,13.70
2022-12-23T16:31:51.071Z,14.40
2022-12-23T16:34:21.407Z,15.88
2022-12-23T16:36:48.330Z,15.70
2022-12-23T16:39:21.786Z,15.40
2022-12-23T16:41:50.127Z,10.45
2022-12-23T16:44:17.082Z,13.38
2022-12-23T16:46:46.519Z,11.82
2022-12-23T16:49:16.854Z,10.13
2022-12-23T16:51:44.461Z,9.35
2022-12-23T16:54:19.340Z,9.18
2022-12-23T16:56:50.203Z,9.43
2022-12-23T16:59:17.029Z,10.63
2022-12-23T17:01:46.544Z,12.85
2022-12-23T17:04:13.462Z,12.60
2022-12-23T17:06:40.809Z,13.93
2022-12-23T17:09:10.629Z,12.90
2022-12-23T17:11:44.701Z,10.68
2022-12-23T17:14:17.640Z,11.35
2022-12-23T17:16:45.507Z,9.85
2022-12-23T17:19:12.792Z,9.65
2022-12-23T17:21:41.971Z,9.65
2022-12-23T17:24:17.689Z,9.82
2022-12-23T17:26:44.449Z,8.85
2022-12-23T17:29:13.024Z,7.95
2022-12-23T17:31:41.350Z,8.65
2022-12-23T17:34:17.289Z,8.63
2022-12-23T17:36:49.594Z,19.33
2022-12-23T17:39:17.547Z,17.38
2022-12-23T17:41:44.359Z,12.38
2022-12-23T17:44:14.651Z,50.63
2022-12-23T17:46:41.841Z,38.35
2022-12-23T17:49:08.884Z,17.27
2022-12-23T17:51:35.895Z,21.40
2022-12-23T17:54:04.603Z,54.58
2022-12-23T17:56:31.411Z,45.10
2022-12-23T17:58:58.609Z,56.95
2022-12-23T18:01:31.255Z,55.72
2022-12-23T18:03:59.953Z,52.67
2022-12-23T18:06:28.575Z,47.20
2022-12-23T18:08:57.428Z,51.92
2022-12-23T18:11:34.446Z,39.75
2022-12-23T18:14:02.021Z,42.20
2022-12-23T18:16:28.977Z,40.50
2022-12-23T18:18:56.274Z,33.58
2022-12-23T18:21:25.660Z,29.75
2022-12-23T18:23:54.903Z,37.88
2022-12-23T18:26:21.666Z,36.03
2022-12-23T18:28:48.570Z,34.10
2022-12-23T18:31:19.106Z,34.08
2022-12-23T18:33:46.769Z,36.35
2022-12-23T18:36:31.552Z,46.60
2022-12-23T18:38:58.775Z,38.03
2022-12-23T18:41:27.193Z,27.17
2022-12-23T18:43:54.446Z,17.08
2022-12-23T18:46:21.653Z,23.25
2022-12-23T18:48:49.147Z,28.27
2022-12-23T18:51:17.515Z,27.45
2022-12-23T18:53:45.283Z,28.73
2022-12-23T18:56:17.061Z,35.13
2022-12-23T19:01:12.705Z,22.42
2022-12-23T19:03:39.933Z,19.25
2022-12-23T19:06:08.433Z,18.98
2022-12-23T19:08:37.195Z,20.08
2022-12-23T19:11:17.877Z,19.40
2022-12-23T19:13:45.698Z,17.50
2022-12-23T19:16:15.776Z,19.05
2022-12-23T19:18:43.167Z,19.95
2022-12-23T19:21:10.152Z,19.92
2022-12-23T19:23:39.681Z,20.70
2022-12-23T19:26:06.715Z,19.70
2022-12-23T19:28:36.517Z,18.02
2022-12-23T19:31:10.832Z,13.63
2022-12-23T19:33:39.357Z,11.80
2022-12-23T19:36:15.205Z,12.00
2022-12-23T19:38:42.226Z,10.65
2022-12-23T19:41:09.545Z,12.18
2022-12-23T19:43:39.856Z,9.05
2022-12-23T19:46:08.889Z,16.23
2022-12-23T19:48:36.665Z,24.38
2022-12-23T19:51:06.538Z,80.22
2022-12-23T19:53:34.180Z,100.88
2022-12-23T19:56:12.872Z,69.97
2022-12-23T19:58:41.571Z,69.70
2022-12-23T20:01:17.649Z,67.90
2022-12-23T20:03:46.371Z,85.35
2022-12-23T20:06:22.213Z,71.22
2022-12-23T20:08:52.628Z,61.47
2022-12-23T20:11:26.458Z,47.28
2022-12-23T20:13:54.948Z,44.75
2022-12-23T20:16:22.562Z,55.10
2022-12-23T20:18:49.697Z,56.58
2022-12-23T20:21:16.716Z,54.58
2022-12-23T20:23:43.657Z,47.50
2022-12-23T20:26:12.977Z,48.67
2022-12-23T20:28:40.379Z,56.00
2022-12-23T20:31:29.958Z,58.83
2022-12-23T20:33:57.902Z,49.60
2022-12-23T20:36:30.264Z,43.15
2022-12-23T20:38:57.719Z,44.35
2022-12-23T20:41:26.906Z,47.67
2022-12-23T20:44:23.841Z,46.60
2022-12-23T20:46:41.579Z,45.28
2022-12-23T20:49:08.640Z,40.40
2022-12-23T20:51:35.539Z,31.00
2022-12-23T20:54:02.703Z,34.05
2022-12-23T20:56:30.552Z,34.85
2022-12-23T20:58:59.287Z,30.95
2022-12-23T21:01:32.284Z,31.15
2022-12-23T21:04:02.400Z,31.45
2022-12-23T21:06:30.966Z,31.05
2022-12-23T21:08:59.965Z,33.35
2022-12-23T21:11:35.849Z,33.33
2022-12-23T21:14:06.811Z,32.72
2022-12-23T21:16:36.873Z,34.25
2022-12-23T21:19:05.441Z,33.28
2022-12-23T21:21:32.403Z,29.45
2022-12-23T21:24:04.277Z,30.20
2022-12-23T21:26:33.310Z,29.77
2022-12-23T21:29:01.400Z,24.80
2022-12-23T21:31:30.571Z,24.52
2022-12-23T21:33:58.620Z,23.23
2022-12-23T21:36:28.034Z,24.60
2022-12-23T21:38:55.296Z,22.58
2022-12-23T21:41:24.750Z,18.23
2022-12-23T21:43:52.242Z,19.00
2022-12-23T21:46:22.028Z,19.63
2022-12-23T21:48:49.913Z,18.98
2022-12-23T21:51:40.618Z,17.92
2022-12-23T21:54:09.403Z,19.67
2022-12-23T21:56:36.586Z,17.00
2022-12-23T21:59:06.310Z,15.25
2022-12-23T22:01:33.787Z,18.55
2022-12-23T22:04:00.870Z,20.05
2022-12-23T22:06:30.355Z,18.38
2022-12-23T22:08:57.810Z,17.75
2022-12-23T22:11:30.855Z,16.13
2022-12-23T22:13:59.372Z,15.98
2022-12-23T22:16:28.254Z,17.75
2022-12-23T22:18:57.416Z,18.42
2022-12-23T22:21:26.605Z,19.00
2022-12-23T22:23:54.349Z,17.85
2022-12-23T22:26:25.802Z,18.48
2022-12-23T22:31:32.084Z,20.02
2022-12-23T22:33:59.458Z,21.30
2022-12-23T22:36:26.530Z,29.13
2022-12-23T22:38:55.923Z,30.65
2022-12-23T22:41:24.613Z,39.70
2022-12-23T22:43:51.596Z,32.70
2022-12-23T22:46:19.018Z,33.45
2022-12-23T22:48:46.454Z,37.03
2022-12-23T22:51:18.850Z,32.88
2022-12-23T22:53:46.543Z,37.60
2022-12-23T22:56:15.598Z,36.97
2022-12-23T22:58:42.767Z,29.25
2022-12-23T23:01:22.481Z,33.45
2022-12-23T23:03:56.869Z,26.70
2022-12-23T23:06:32.922Z,27.52
2022-12-23T23:09:00.501Z,33.05
2022-12-23T23:11:28.389Z,32.15
2022-12-23T23:13:55.919Z,28.63
2022-12-23T23:16:24.104Z,28.95
2022-12-23T23:18:51.969Z,27.20
2022-12-23T23:21:19.286Z,22.48
2022-12-23T23:23:46.290Z,20.85
2022-12-23T23:26:13.514Z,24.95
2022-12-23T23:28:41.355Z,24.52
2022-12-23T23:33:57.915Z,26.98
2022-12-23T23:36:25.190Z,25.65
2022-12-23T23:38:52.237Z,24.00
2022-12-23T23:41:23.381Z,25.55
2022-12-23T23:43:51.139Z,25.58
2022-12-23T23:46:18.117Z,28.60
2022-12-23T23:48:45.171Z,24.27
2022-12-23T23:51:12.838Z,20.80
2022-12-23T23:53:40.435Z,21.17
2022-12-23T23:56:08.390Z,19.67
2022-12-23T23:58:37.117Z,19.70
